Time;durP1;ratioP1;P1;durP2;ratioP2;P2;SDS_P1;SDS_P2;PMS_P1;PMS_P2;Temp;Humidity;BMP_temperature;BMP_pressure;BME280_temperature;BME280_humidity;BME280_pressure;Samples;Min_cycle;Max_cycle;Signal;HPM_P1;HPM_P2
2023/01/26 00:00:56;;;;;;;12.82;8.50;;;;;;;0.75;79.73;99802.09;5106905;28;20300;-73
2023/01/26 00:03:23;;;;;;;11.45;8.68;;;;;;;0.69;79.79;99800.41;5106437;28;20059;-73
2023/01/26 00:05:50;;;;;;;12.88;8.63;;;;;;;0.70;80.03;99796.91;5107023;28;20062;-74
2023/01/26 00:08:17;;;;;;;11.73;8.25;;;;;;;0.73;79.87;99796.91;5107015;28;20043;-73
2023/01/26 00:10:49;;;;;;;12.77;8.15;;;;;;;0.74;79.80;99785.59;5105529;28;20043;-74
2023/01/26 00:13:18;;;;;;;12.70;8.88;;;;;;;0.76;79.67;99793.41;5106679;28;20043;-74
2023/01/26 00:15:45;;;;;;;10.27;7.72;;;;;;;0.76;79.49;99788.19;5106604;28;20036;-74
2023/01/26 00:18:12;;;;;;;11.75;8.20;;;;;;;0.71;79.62;99790.81;5105415;28;20036;-74
2023/01/26 00:20:39;;;;;;;11.05;7.97;;;;;;;0.69;79.73;99787.38;5105389;28;20044;-74
2023/01/26 00:23:06;;;;;;;14.95;9.48;;;;;;;0.73;79.74;99785.59;5106223;28;20050;-74
2023/01/26 00:25:33;;;;;;;13.82;9.25;;;;;;;0.77;79.89;99774.25;5106430;28;20284;-74
2023/01/26 00:27:59;;;;;;;11.32;8.50;;;;;;;0.77;79.70;99782.09;5106328;28;20074;-73
2023/01/26 00:30:28;;;;;;;12.32;9.30;;;;;;;0.77;79.73;99776.88;5106088;28;20040;-74
2023/01/26 00:32:56;;;;;;;11.10;7.63;;;;;;;0.73;79.77;99780.38;5106072;28;20231;-73
2023/01/26 00:35:23;;;;;;;11.70;8.40;;;;;;;0.68;79.62;99774.34;5105988;28;20051;-73
2023/01/26 00:37:50;;;;;;;11.55;9.00;;;;;;;0.61;79.98;99773.53;5106504;28;20184;-74
2023/01/26 00:40:16;;;;;;;12.20;8.68;;;;;;;0.57;80.24;99777.03;5104391;28;20036;-74
2023/01/26 00:42:43;;;;;;;12.73;9.10;;;;;;;0.54;80.32;99775.31;5105213;28;20047;-74
2023/01/26 00:45:10;;;;;;;14.38;10.07;;;;;;;0.58;80.33;99769.19;5105035;28;20040;-74
2023/01/26 00:47:38;;;;;;;11.65;9.05;;;;;;;0.57;80.21;99764.00;5106390;28;20044;-73
2023/01/26 00:50:06;;;;;;;11.00;8.25;;;;;;;0.56;80.35;99763.13;5104819;28;20039;-73
2023/01/26 00:52:33;;;;;;;11.02;8.55;;;;;;;0.53;80.42;99757.06;5105583;28;20040;-73
2023/01/26 00:54:59;;;;;;;9.70;8.15;;;;;;;0.53;80.23;99749.25;5088140;28;20307;-74
2023/01/26 00:57:27;;;;;;;10.02;6.97;;;;;;;0.51;80.37;99756.22;5106269;28;20052;-74
2023/01/26 00:59:54;;;;;;;9.40;7.32;;;;;;;0.50;80.25;99754.47;5106215;28;20042;-74
2023/01/26 01:02:21;;;;;;;10.32;8.25;;;;;;;0.47;80.47;99751.91;5105409;28;20258;-74
2023/01/26 01:04:49;;;;;;;10.52;8.52;;;;;;;0.48;80.58;99751.03;5106201;28;20054;-74
2023/01/26 01:07:16;;;;;;;10.38;8.63;;;;;;;0.52;80.77;99755.34;5106127;28;20043;-74
2023/01/26 01:09:42;;;;;;;12.02;8.80;;;;;;;0.50;80.72;99746.66;5105738;28;20051;-74
2023/01/26 01:12:09;;;;;;;9.77;8.25;;;;;;;0.47;80.93;99755.38;5105824;28;20042;-74
2023/01/26 01:14:36;;;;;;;10.13;8.80;;;;;;;0.47;80.54;99744.09;5105792;28;20157;-74
2023/01/26 01:17:03;;;;;;;10.90;8.35;;;;;;;0.46;80.61;99740.59;5104625;28;20043;-74
2023/01/26 01:19:30;;;;;;;10.98;8.43;;;;;;;0.52;80.38;99739.69;5105436;28;20044;-74
2023/01/26 01:21:58;;;;;;;9.80;8.00;;;;;;;0.58;80.34;99732.69;5105435;28;20046;-73
2023/01/26 01:24:25;;;;;;;9.60;7.68;;;;;;;0.60;80.31;99727.44;5105663;28;20040;-74
2023/01/26 01:26:52;;;;;;;11.35;8.45;;;;;;;0.63;80.43;99727.41;5105396;28;20043;-74
2023/01/26 01:29:19;;;;;;;11.18;8.48;;;;;;;0.66;80.12;99724.78;5104760;28;20039;-74
2023/01/26 01:31:45;;;;;;;12.02;7.72;;;;;;;0.68;80.05;99722.16;5105366;28;20206;-73
2023/01/26 01:34:12;;;;;;;10.48;7.95;;;;;;;0.73;79.91;99718.63;5105356;28;20295;-73
2023/01/26 01:36:39;;;;;;;10.90;8.57;;;;;;;0.77;79.76;99715.09;5105332;28;20043;-74
2023/01/26 01:39:07;;;;;;;9.02;7.38;;;;;;;0.79;79.90;99718.56;5105313;28;20032;-74
2023/01/26 01:41:34;;;;;;;9.95;8.02;;;;;;;0.80;79.83;99720.28;5104413;28;20048;-73
2023/01/26 01:44:26;;;;;;;11.15;7.97;;;;;;;0.81;80.20;99713.34;5105866;28;20111;-73
2023/01/26 01:46:57;;;;;;;11.07;7.82;;;;;;;0.79;79.71;99715.09;5090723;28;20324;-74
2023/01/26 01:49:28;;;;;;;11.48;8.18;;;;;;;0.81;79.68;99713.34;5105629;28;20063;-74
2023/01/26 01:51:58;;;;;;;12.40;8.52;;;;;;;-0.64;79.60;99464.50;5106756;28;20062;-74
2023/01/26 01:54:32;;;;;;;10.98;8.18;;;;;;;0.81;79.74;99708.13;5109596;28;20046;-74
2023/01/26 01:57:14;;;;;;;10.60;7.63;;;;;;;0.79;79.67;99710.75;5109646;28;20185;-74
2023/01/26 01:59:44;;;;;;;11.63;8.27;;;;;;;0.80;79.75;99701.16;5109574;28;20288;-74
2023/01/26 02:02:12;;;;;;;11.95;8.68;;;;;;;0.79;79.66;99694.22;5107932;28;20048;-74
2023/01/26 02:04:38;;;;;;;11.35;8.85;;;;;;;0.61;79.62;99669.19;5109224;28;20065;-74
2023/01/26 02:07:05;;;;;;;9.88;7.82;;;;;;;0.78;79.59;99688.13;5108901;28;20036;-74
2023/01/26 02:12:23;;;;;;;13.27;9.13;;;;;;;0.77;79.74;99683.81;5109073;28;20211;-74
2023/01/26 02:14:52;;;;;;;11.73;8.05;;;;;;;0.80;79.74;99678.56;5109259;28;20044;-74
2023/01/26 02:17:19;;;;;;;11.57;8.00;;;;;;;0.84;79.54;99675.03;5107829;28;20040;-74
2023/01/26 02:19:51;;;;;;;12.75;8.38;;;;;;;0.84;79.46;99674.16;5108614;28;20047;-73
2023/01/26 02:22:29;;;;;;;11.48;9.07;;;;;;;0.84;79.74;99663.72;5108593;28;20110;-74
2023/01/26 02:25:04;;;;;;;12.88;9.93;;;;;;;0.85;79.53;99660.22;5108845;28;20089;-74
2023/01/26 02:27:32;;;;;;;12.45;9.73;;;;;;;0.86;79.44;99657.59;5109030;28;20047;-74
2023/01/26 02:30:01;;;;;;;12.77;9.02;;;;;;;0.84;79.64;99656.75;5108389;28;20043;-73
2023/01/26 02:32:28;;;;;;;16.65;10.45;;;;;;;0.79;79.76;99655.94;5109052;28;20058;-73
2023/01/26 02:34:58;;;;;;;10.50;8.77;;;;;;;0.79;79.75;99648.13;5108363;28;20086;-74
2023/01/26 02:37:25;;;;;;;12.05;8.63;;;;;;;0.82;79.67;99660.28;5108874;28;20089;-73
2023/01/26 02:39:56;;;;;;;12.23;10.30;;;;;;;0.82;79.92;99645.47;5108215;28;20059;-74
2023/01/26 02:42:40;;;;;;;12.32;9.55;;;;;;;0.73;79.76;99626.47;5108518;28;20304;-74
2023/01/26 02:45:12;;;;;;;12.93;9.90;;;;;;;0.81;79.71;99646.34;5107258;28;20203;-73
2023/01/26 02:47:40;;;;;;;12.82;10.23;;;;;;;0.80;79.55;99641.16;5107319;28;20035;-72
2023/01/26 02:50:06;;;;;;;11.98;9.90;;;;;;;0.81;79.64;99637.66;5107178;28;20067;-73
2023/01/26 02:52:33;;;;;;;13.80;8.88;;;;;;;0.82;79.85;99634.19;5091046;28;20196;-74
2023/01/26 02:58:01;;;;;;;13.15;10.23;;;;;;;0.78;79.76;99635.09;5086513;28;20082;-74
2023/01/26 03:00:31;;;;;;;12.70;9.70;;;;;;;0.76;79.81;99637.72;5069725;28;20044;-74
2023/01/26 03:02:59;;;;;;;12.07;8.50;;;;;;;0.26;79.66;99565.25;5084864;28;20067;-74
2023/01/26 03:05:27;;;;;;;13.55;9.77;;;;;;;0.64;79.70;99631.78;5107509;28;20043;-74
2023/01/26 03:07:54;;;;;;;11.05;8.35;;;;;;;0.58;79.71;99650.97;5107054;28;20040;-74
2023/01/26 03:10:23;;;;;;;11.90;9.80;;;;;;;0.52;79.81;99635.38;5107886;28;20039;-74
2023/01/26 03:12:49;;;;;;;11.25;8.45;;;;;;;0.55;79.86;99624.91;5107700;28;20300;-74
2023/01/26 03:15:41;;;;;;;12.70;9.52;;;;;;;0.55;79.94;99624.91;5108187;28;20040;-74
2023/01/26 03:29:08;;;;;;;14.50;11.13;;;;;;;0.12;79.72;99562.78;5107872;28;20295;-74
2023/01/26 03:31:35;;;;;;;14.07;10.32;;;;;;;0.59;79.81;99624.84;5106433;28;20047;-74
2023/01/26 03:34:03;;;;;;;13.68;10.23;;;;;;;0.62;79.70;99621.34;5107781;28;20089;-74
2023/01/26 03:36:30;;;;;;;12.93;10.52;;;;;;;0.64;79.76;99614.38;5107589;28;20300;-74
2023/01/26 03:38:58;;;;;;;14.43;10.40;;;;;;;0.66;79.69;99615.22;5107735;28;20039;-74
2023/01/26 03:57:53;;;;;;;;;;;;;;;0.67;80.28;99598.69;5106725;28;20110;-74
2023/01/26 04:00:20;;;;;;;14.45;9.82;;;;;;;0.70;79.70;99603.88;5106762;28;19916;-74
2023/01/26 04:08:23;;;;;;;13.43;9.75;;;;;;;0.77;79.53;99589.00;5105734;28;20044;-74
2023/01/26 04:10:51;;;;;;;11.85;9.02;;;;;;;0.77;79.49;99592.47;5106743;28;20043;-74
2023/01/26 04:21:34;;;;;;;14.13;10.55;;;;;;;0.71;79.84;99583.88;5106636;28;20052;-75
2023/01/26 04:24:08;;;;;;;16.02;12.10;;;;;;;0.71;79.84;99574.28;5105746;28;20185;-74
2023/01/26 04:26:36;;;;;;;14.63;11.05;;;;;;;0.74;79.99;99573.41;5105386;28;20067;-74
2023/01/26 04:29:03;;;;;;;14.63;10.18;;;;;;;0.74;79.87;99565.56;5106153;28;20040;-74
2023/01/26 04:31:30;;;;;;;13.32;10.80;;;;;;;0.74;79.96;99574.25;5106162;28;20059;-74
2023/01/26 04:33:57;;;;;;;13.65;10.02;;;;;;;0.77;79.94;99569.00;5106665;28;20052;-74
2023/01/26 04:36:24;;;;;;;12.85;9.73;;;;;;;0.80;79.81;99568.97;5106027;28;20040;-74
2023/01/26 04:38:52;;;;;;;15.65;11.10;;;;;;;0.79;79.84;99571.59;5106658;28;20089;-74
2023/01/26 04:41:19;;;;;;;15.43;10.77;;;;;;;0.15;79.85;99466.31;5106502;28;20056;-74
2023/01/26 04:43:46;;;;;;;14.48;10.27;;;;;;;0.75;79.81;99568.16;5105867;28;20036;-74
2023/01/26 04:46:13;;;;;;;14.63;10.63;;;;;;;0.76;79.91;99566.41;5106148;28;20062;-74
2023/01/26 04:48:40;;;;;;;15.93;10.27;;;;;;;0.75;80.21;99559.47;5106192;28;20300;-74
2023/01/26 04:51:12;;;;;;;17.02;10.88;;;;;;;0.30;80.29;99496.53;5106296;28;20045;-74
2023/01/26 04:53:39;;;;;;;13.80;10.05;;;;;;;0.78;80.06;99552.47;5106115;28;20188;-74
2023/01/26 04:56:09;;;;;;;13.60;9.23;;;;;;;0.78;79.86;99555.06;5106049;28;20052;-74
2023/01/26 04:58:36;;;;;;;16.55;10.60;;;;;;;0.80;80.11;99555.91;5106289;28;20043;-74
2023/01/26 05:01:02;;;;;;;13.15;9.65;;;;;;;0.80;79.95;99550.69;5104799;28;20035;-75
2023/01/26 05:03:29;;;;;;;16.33;10.18;;;;;;;0.81;80.02;99554.16;5105559;28;20098;-74
2023/01/26 05:05:56;;;;;;;12.90;10.18;;;;;;;0.74;80.10;99548.16;5106006;28;20044;-74
2023/01/26 05:08:23;;;;;;;15.77;10.05;;;;;;;0.75;80.01;99549.03;5105406;28;20047;-75
2023/01/26 05:10:51;;;;;;;15.57;10.85;;;;;;;0.75;80.12;99547.28;5105470;28;20044;-74
2023/01/26 05:13:19;;;;;;;16.60;11.20;;;;;;;0.76;80.08;99545.53;5106058;28;20050;-74
2023/01/26 05:15:47;;;;;;;14.68;9.98;;;;;;;0.77;80.05;99539.44;5104711;28;20173;-74
2023/01/26 05:18:14;;;;;;;16.65;10.98;;;;;;;0.78;80.12;99541.16;5104636;28;20051;-74
2023/01/26 05:20:41;;;;;;;14.68;10.13;;;;;;;0.78;80.03;99539.41;5106035;28;20040;-75
2023/01/26 05:23:07;;;;;;;16.17;10.40;;;;;;;0.79;80.04;99540.28;5105717;28;20051;-74
2023/01/26 05:25:34;;;;;;;14.80;9.95;;;;;;;0.79;80.05;99535.94;5105946;28;20050;-74
2023/01/26 05:28:01;;;;;;;15.43;11.00;;;;;;;0.77;80.15;99542.06;5107594;28;20203;-74
2023/01/26 05:30:29;;;;;;;17.95;10.70;;;;;;;0.76;80.11;99535.09;5110070;28;20051;-74
2023/01/26 05:33:01;;;;;;;15.82;11.15;;;;;;;0.75;80.17;99534.25;5109523;28;20051;-74
2023/01/26 05:35:27;;;;;;;15.38;10.32;;;;;;;0.74;80.15;99535.13;5109521;28;20044;-74
2023/01/26 05:37:55;;;;;;;15.63;10.40;;;;;;;0.73;80.06;99535.16;5109486;28;20040;-74
2023/01/26 05:40:22;;;;;;;16.90;11.25;;;;;;;0.75;80.00;99530.78;5108575;28;20062;-74
2023/01/26 05:42:49;;;;;;;16.92;10.80;;;;;;;0.75;80.01;99534.25;5108485;28;20207;-74
2023/01/26 05:45:16;;;;;;;14.98;10.75;;;;;;;0.55;80.27;99510.16;5108467;28;20040;-75
2023/01/26 05:47:45;;;;;;;16.08;10.55;;;;;;;0.39;80.23;99490.38;5109790;28;20288;-74
2023/01/26 05:50:12;;;;;;;16.10;11.25;;;;;;;0.73;80.29;99542.97;5109686;28;20040;-74
2023/01/26 05:52:39;;;;;;;19.10;11.90;;;;;;;0.75;80.26;99538.59;5108441;28;20319;-74
2023/01/26 05:55:07;;;;;;;16.77;11.68;;;;;;;0.74;80.38;99542.94;5109668;28;20048;-74
2023/01/26 05:57:35;;;;;;;14.15;10.55;;;;;;;0.77;80.32;99552.50;5109160;28;20036;-75
2023/01/26 06:00:02;;;;;;;16.08;12.55;;;;;;;0.76;80.34;99540.31;5109123;28;20039;-74
2023/01/26 06:02:29;;;;;;;20.42;12.43;;;;;;;0.79;80.25;99541.16;5108999;28;20067;-74
2023/01/26 06:04:57;;;;;;;17.55;12.15;;;;;;;0.78;80.27;99536.81;5109561;28;20040;-74
2023/01/26 06:07:25;;;;;;;17.75;12.73;;;;;;;0.77;80.32;99542.06;5108548;28;20093;-74
2023/01/26 06:09:52;;;;;;;19.95;13.73;;;;;;;0.78;80.28;99542.03;5108669;28;20055;-74
2023/01/26 06:12:20;;;;;;;18.55;11.80;;;;;;;0.80;80.26;99545.47;5107927;28;20040;-74
2023/01/26 06:14:48;;;;;;;19.27;11.77;;;;;;;0.81;80.22;99542.00;5108004;28;20040;-74
2023/01/26 06:17:16;;;;;;;20.38;13.10;;;;;;;0.84;80.09;99539.34;5107802;28;20242;-74
2023/01/26 06:19:44;;;;;;;17.92;13.10;;;;;;;0.84;80.12;99534.13;5108965;28;20039;-75
2023/01/26 06:22:13;;;;;;;16.95;12.65;;;;;;;0.83;80.45;99544.59;5108612;28;20050;-74
2023/01/26 06:24:41;;;;;;;18.60;12.30;;;;;;;0.34;80.32;99476.50;5108524;28;20047;-74
2023/01/26 06:27:12;;;;;;;17.50;13.20;;;;;;;0.82;80.40;99538.50;5108960;28;20039;-74
2023/01/26 06:29:40;;;;;;;16.38;11.55;;;;;;;0.84;80.31;99531.50;5108845;28;20040;-74
2023/01/26 06:32:07;;;;;;;16.52;12.23;;;;;;;0.84;80.35;99531.50;5108662;28;20040;-75
2023/01/26 06:34:34;;;;;;;20.55;14.52;;;;;;;0.86;80.20;99534.09;5108252;28;20040;-74
2023/01/26 06:37:00;;;;;;;18.45;11.98;;;;;;;0.89;80.17;99537.53;5108797;28;20050;-74
2023/01/26 06:39:29;;;;;;;22.15;13.13;;;;;;;0.88;80.29;99535.81;5106858;28;20063;-74
2023/01/26 06:41:56;;;;;;;20.50;13.68;;;;;;;0.86;80.20;99527.13;5108076;28;20304;-74
2023/01/26 06:44:22;;;;;;;19.00;12.68;;;;;;;0.87;80.30;99538.44;5108102;28;20048;-74
2023/01/26 06:46:49;;;;;;;18.08;13.38;;;;;;;0.86;80.56;99542.78;5108554;28;20044;-74
2023/01/26 06:49:16;;;;;;;20.88;13.93;;;;;;;0.86;80.37;99537.56;5108149;28;20039;-74
2023/01/26 06:51:54;;;;;;;20.38;13.15;;;;;;;0.87;80.43;99536.69;5108254;28;20036;-74
2023/01/26 06:54:21;;;;;;;19.23;13.80;;;;;;;0.87;80.69;99533.22;5108450;28;20048;-74
2023/01/26 06:56:49;;;;;;;23.83;14.10;;;;;;;0.87;80.59;99539.31;5108364;28;20187;-74
2023/01/26 06:59:17;;;;;;;20.77;15.40;;;;;;;0.87;80.74;99543.66;5107009;28;20048;-74
2023/01/26 07:01:47;;;;;;;20.45;13.10;;;;;;;0.84;81.01;99544.56;5106774;28;20040;-74
2023/01/26 07:04:14;;;;;;;20.73;12.80;;;;;;;0.39;80.76;99469.50;5106931;28;20047;-74
2023/01/26 07:06:42;;;;;;;20.27;13.10;;;;;;;0.86;80.97;99541.94;5108207;28;20194;-74
2023/01/26 07:09:09;;;;;;;18.05;11.95;;;;;;;0.85;80.77;99540.22;5107910;28;20101;-74
2023/01/26 07:11:36;;;;;;;18.95;13.05;;;;;;;0.86;80.74;99541.94;5107582;28;20036;-74
2023/01/26 07:14:04;;;;;;;20.40;14.00;;;;;;;0.86;80.74;99542.78;5107548;28;20275;-74
2023/01/26 07:16:31;;;;;;;21.48;13.55;;;;;;;0.87;80.70;99547.13;5107782;28;20051;-74
2023/01/26 07:18:58;;;;;;;18.95;12.82;;;;;;;0.87;80.97;99543.66;5106555;28;20047;-74
2023/01/26 07:21:25;;;;;;;19.63;13.18;;;;;;;0.86;81.14;99539.31;5107190;28;20223;-75
2023/01/26 07:23:52;;;;;;;18.65;13.00;;;;;;;0.85;81.10;99535.84;5107963;28;20048;-75
2023/01/26 07:26:20;;;;;;;20.67;13.93;;;;;;;0.86;81.15;99541.94;5107587;28;20040;-75
2023/01/26 07:28:47;;;;;;;22.98;13.43;;;;;;;0.86;81.08;99540.19;5107826;28;20044;-75
2023/01/26 07:31:16;;;;;;;19.52;13.82;;;;;;;0.86;81.11;99534.97;5107672;28;20059;-74
2023/01/26 07:33:43;;;;;;;20.20;13.80;;;;;;;0.35;80.93;99454.78;5107527;28;20044;-75
2023/01/26 07:36:11;;;;;;;18.35;12.98;;;;;;;0.89;80.85;99532.31;5107422;28;20036;-75
2023/01/26 07:38:38;;;;;;;23.30;14.43;;;;;;;0.88;81.02;99527.13;5106213;28;20104;-74
2023/01/26 07:41:07;;;;;;;21.33;14.20;;;;;;;0.88;80.93;99533.19;5106426;28;20036;-74
2023/01/26 07:43:35;;;;;;;21.80;14.00;;;;;;;0.88;80.89;99525.38;5107266;28;20203;-74
2023/01/26 07:46:02;;;;;;;20.70;13.73;;;;;;;0.47;80.81;99470.28;5107150;28;20043;-74
2023/01/26 07:48:31;;;;;;;21.65;14.93;;;;;;;0.90;81.01;99517.53;5107469;28;20039;-74
2023/01/26 07:51:02;;;;;;;21.55;12.57;;;;;;;0.91;80.99;99530.56;5106377;28;20066;-74
2023/01/26 07:53:30;;;;;;;22.30;14.38;;;;;;;0.92;80.96;99526.19;5106137;28;20056;-74
2023/01/26 07:56:06;;;;;;;25.30;14.43;;;;;;;0.53;80.98;99455.41;5107147;28;20104;-74
2023/01/26 07:58:34;;;;;;;23.25;14.70;;;;;;;0.99;80.81;99513.94;5105840;28;20047;-74
2023/01/26 08:01:10;;;;;;;22.90;14.35;;;;;;;1.00;80.66;99523.47;5106529;28;20032;-74
2023/01/26 08:03:39;;;;;;;24.65;15.90;;;;;;;1.01;80.51;99522.59;5106408;28;20320;-74
2023/01/26 08:06:07;;;;;;;24.98;13.65;;;;;;;0.09;80.52;99372.56;5105717;28;20046;-74
2023/01/26 08:08:34;;;;;;;25.40;14.13;;;;;;;0.92;80.78;99520.97;5105601;28;20046;-74
2023/01/26 08:11:02;;;;;;;26.40;15.68;;;;;;;0.94;80.73;99529.66;5106291;28;20098;-74
2023/01/26 08:13:30;;;;;;;23.67;14.55;;;;;;;0.95;80.76;99526.16;5105534;28;20042;-74
2023/01/26 08:16:02;;;;;;;21.75;14.07;;;;;;;0.95;80.91;99531.38;5106858;28;20047;-74
2023/01/26 08:18:29;;;;;;;25.52;15.50;;;;;;;0.54;80.70;99466.69;5106542;28;20048;-74
2023/01/26 08:20:57;;;;;;;23.48;14.57;;;;;;;-2.07;80.42;99008.22;5106753;28;20040;-74
2023/01/26 08:23:24;;;;;;;29.75;19.13;;;;;;;0.98;80.77;99527.84;5106312;28;20345;-75
2023/01/26 08:25:51;;;;;;;28.08;18.40;;;;;;;0.98;80.89;99518.28;5106346;28;20180;-74
2023/01/26 08:28:17;;;;;;;27.67;16.25;;;;;;;0.98;80.87;99530.47;5106387;28;20044;-74
2023/01/26 08:30:44;;;;;;;25.65;15.32;;;;;;;0.98;80.83;99520.91;5106153;28;20040;-74
2023/01/26 08:33:11;;;;;;;24.05;16.15;;;;;;;1.00;80.79;99528.69;5106358;28;20055;-75
2023/01/26 08:35:38;;;;;;;26.40;15.35;;;;;;;0.99;80.90;99522.63;5105937;28;20288;-75
2023/01/26 08:38:06;;;;;;;31.58;15.85;;;;;;;0.36;80.79;99427.81;5106478;28;20048;-74
2023/01/26 08:40:33;;;;;;;26.33;14.30;;;;;;;0.96;80.77;99525.28;5106293;28;20211;-75
2023/01/26 08:43:01;;;;;;;23.15;15.18;;;;;;;0.92;80.81;99521.84;5106181;28;20227;-75
2023/01/26 08:45:28;;;;;;;25.13;16.25;;;;;;;0.90;80.78;99513.16;5106437;28;20044;-74
2023/01/26 08:47:55;;;;;;;26.63;14.80;;;;;;;0.86;81.05;99511.47;5106544;28;20048;-74
2023/01/26 08:50:22;;;;;;;29.52;17.10;;;;;;;0.81;81.21;99497.63;5106264;28;20058;-74
2023/01/26 08:52:49;;;;;;;25.13;16.30;;;;;;;0.88;81.30;99512.31;5105987;28;20102;-75
2023/01/26 08:55:17;;;;;;;28.40;15.77;;;;;;;0.91;80.96;99517.50;5105054;28;20050;-75
2023/01/26 08:57:45;;;;;;;31.35;16.85;;;;;;;0.93;80.94;99515.75;5105770;28;20048;-75
2023/01/26 09:00:14;;;;;;;25.63;15.00;;;;;;;0.94;80.93;99511.38;5104925;28;20031;-74
2023/01/26 09:02:41;;;;;;;23.85;14.02;;;;;;;0.92;80.90;99513.16;5103977;28;20048;-77
2023/01/26 09:05:09;;;;;;;29.90;17.02;;;;;;;0.91;80.98;99512.28;5104848;28;20135;-75
2023/01/26 09:07:35;;;;;;;28.10;16.58;;;;;;;0.92;80.88;99510.53;5104876;28;20032;-75
2023/01/26 09:10:02;;;;;;;30.30;15.52;;;;;;;0.91;81.16;99507.06;5105590;28;20035;-75
2023/01/26 09:12:30;;;;;;;31.38;18.15;;;;;;;0.92;80.97;99511.41;5105673;28;20040;-75
2023/01/26 09:14:57;;;;;;;35.35;17.88;;;;;;;0.92;81.30;99519.22;5105605;28;20042;-75
2023/01/26 09:17:24;;;;;;;31.90;16.95;;;;;;;0.71;81.26;99480.38;5105975;28;20203;-75
2023/01/26 09:19:51;;;;;;;30.85;17.50;;;;;;;0.91;81.29;99512.28;5106040;28;20048;-75
2023/01/26 09:22:17;;;;;;;27.35;16.27;;;;;;;0.89;81.05;99519.28;5105360;28;20036;-75
2023/01/26 09:24:44;;;;;;;27.13;16.17;;;;;;;0.89;81.13;99514.06;5104644;28;20315;-75
2023/01/26 09:27:11;;;;;;;24.55;14.23;;;;;;;0.76;80.77;99485.53;5104671;28;20043;-75
2023/01/26 09:29:39;;;;;;;22.63;14.48;;;;;;;0.93;80.79;99514.88;5105563;28;20044;-75
2023/01/26 09:32:06;;;;;;;28.42;16.05;;;;;;;0.92;80.86;99515.75;5105202;28;20299;-75
2023/01/26 09:34:33;;;;;;;26.27;16.42;;;;;;;0.90;80.77;99517.53;5105390;28;20044;-75
2023/01/26 09:37:00;;;;;;;27.83;16.23;;;;;;;0.71;80.73;99493.44;5105882;28;20040;-75
2023/01/26 09:39:27;;;;;;;27.73;15.13;;;;;;;0.88;80.70;99509.72;5105529;28;20044;-75
2023/01/26 09:42:16;;;;;;;25.80;15.65;;;;;;;0.88;80.82;99512.31;5104595;28;20052;-75
2023/01/26 09:44:52;;;;;;;24.77;14.07;;;;;;;0.89;80.76;99508.84;5104383;28;20063;-75
2023/01/26 09:47:25;;;;;;;29.75;15.85;;;;;;;0.90;80.74;99507.09;5105473;28;20052;-75
2023/01/26 09:49:59;;;;;;;23.88;14.85;;;;;;;0.90;80.82;99501.88;5105495;28;20054;-75
2023/01/26 09:52:29;;;;;;;26.08;14.40;;;;;;;0.93;81.10;99496.59;5104513;28;20040;-75
2023/01/26 09:55:00;;;;;;;23.08;14.55;;;;;;;0.96;80.69;99500.91;5105307;28;20048;-75
2023/01/26 09:57:33;;;;;;;25.17;16.98;;;;;;;0.99;80.54;99498.28;5105604;28;20048;-75
2023/01/26 10:00:10;;;;;;;28.85;17.20;;;;;;;1.00;80.66;99500.00;5105691;28;20196;-75
2023/01/26 10:02:53;;;;;;;23.33;15.50;;;;;;;1.03;80.45;99498.19;5103939;28;20272;-75
2023/01/26 10:05:25;;;;;;;25.85;15.82;;;;;;;1.03;80.21;99492.97;5104882;28;20048;-75
2023/01/26 10:07:52;;;;;;;28.10;17.63;;;;;;;1.05;80.07;99495.56;5105425;28;20093;-75
2023/01/26 10:10:26;;;;;;;26.83;17.23;;;;;;;1.03;80.25;99508.63;5105419;28;20039;-75
2023/01/26 10:12:54;;;;;;;27.05;15.65;;;;;;;1.05;80.16;99503.41;5105908;28;20306;-75
2023/01/26 10:15:30;;;;;;;26.75;15.35;;;;;;;1.05;80.22;99487.75;5107752;28;20036;-75
2023/01/26 10:18:00;;;;;;;28.58;17.45;;;;;;;0.85;79.92;99452.34;5109102;28;20054;-75
2023/01/26 10:20:31;;;;;;;28.60;16.73;;;;;;;1.05;80.14;99482.50;5109147;28;20048;-75
2023/01/26 10:23:03;;;;;;;24.23;14.48;;;;;;;1.04;80.24;99484.25;5108667;28;20048;-75
2023/01/26 10:25:36;;;;;;;28.65;13.90;;;;;;;0.60;80.04;99406.63;5107803;28;20068;-75
2023/01/26 10:28:12;;;;;;;22.83;14.27;;;;;;;1.02;80.11;99479.94;5108331;28;20207;-75
2023/01/26 10:30:42;;;;;;;24.90;14.70;;;;;;;1.00;80.00;99476.50;5108294;28;20032;-76
2023/01/26 10:33:15;;;;;;;27.20;15.60;;;;;;;1.00;79.70;99469.53;5108745;28;20060;-75
2023/01/26 10:35:42;;;;;;;23.77;14.18;;;;;;;1.00;79.93;99476.50;5107565;28;20040;-76
2023/01/26 10:38:26;;;;;;;25.17;14.02;;;;;;;0.98;79.85;99466.09;5107558;28;20044;-75
2023/01/26 10:40:53;;;;;;;24.10;14.70;;;;;;;0.96;79.89;99462.63;5107521;28;20046;-75
2023/01/26 10:43:20;;;;;;;25.15;15.50;;;;;;;0.44;79.91;99395.56;5108824;28;20044;-76
2023/01/26 10:45:49;;;;;;;31.05;17.77;;;;;;;0.99;80.25;99465.19;5108765;28;20039;-75
2023/01/26 10:48:19;;;;;;;28.02;17.13;;;;;;;0.92;80.36;99454.00;5108410;28;20246;-75
2023/01/26 10:50:47;;;;;;;29.50;17.38;;;;;;;0.93;80.29;99447.88;5107450;28;20063;-75
2023/01/26 10:53:17;;;;;;;28.40;18.25;;;;;;;0.94;80.31;99448.75;5107193;28;20055;-76
2023/01/26 10:55:59;;;;;;;27.88;17.52;;;;;;;0.97;80.47;99447.84;5108673;28;20081;-75
2023/01/26 10:58:43;;;;;;;27.17;16.58;;;;;;;0.96;80.44;99439.16;5108656;28;20173;-75
2023/01/26 11:01:14;;;;;;;28.88;17.58;;;;;;;0.98;80.23;99439.13;5107066;28;20271;-76
2023/01/26 11:03:41;;;;;;;26.52;16.58;;;;;;;0.98;80.12;99429.56;5107700;28;20052;-75
2023/01/26 11:06:14;;;;;;;26.55;16.02;;;;;;;0.99;79.90;99439.09;5108182;28;20043;-76
2023/01/26 11:08:42;;;;;;;27.63;15.57;;;;;;;1.02;79.90;99433.84;5106986;28;20203;-75
2023/01/26 11:11:26;;;;;;;31.23;16.80;;;;;;;1.02;79.70;99431.22;5106836;28;20040;-75
2023/01/26 11:14:11;;;;;;;26.48;15.63;;;;;;;1.03;79.71;99434.69;5107987;28;20365;-75
2023/01/26 11:16:41;;;;;;;26.25;15.50;;;;;;;1.00;79.47;99435.59;5107748;28;20109;-75
2023/01/26 11:19:13;;;;;;;28.00;15.88;;;;;;;1.01;79.33;99433.84;5106806;28;20050;-76
2023/01/26 11:21:46;;;;;;;27.08;14.77;;;;;;;1.02;79.33;99422.53;5106713;28;20077;-75
2023/01/26 11:24:20;;;;;;;29.33;16.02;;;;;;;1.04;79.43;99415.53;5106769;28;20059;-75
2023/01/26 11:27:21;;;;;;;29.67;18.00;;;;;;;1.09;79.33;99408.50;5107410;28;20054;-75
2023/01/26 11:30:02;;;;;;;27.13;16.20;;;;;;;1.05;78.91;99407.69;5089725;28;20367;-75
2023/01/26 11:32:39;;;;;;;25.70;15.90;;;;;;;1.03;78.82;99403.38;5107724;28;20036;-75
2023/01/26 11:35:14;;;;;;;24.95;14.32;;;;;;;1.02;78.67;99402.53;5107927;28;20054;-76
2023/01/26 11:37:45;;;;;;;25.08;14.25;;;;;;;1.02;78.22;99401.66;5106769;28;20036;-75
2023/01/26 11:40:24;;;;;;;23.70;14.68;;;;;;;1.01;78.13;99392.97;5107918;28;20310;-75
2023/01/26 11:43:05;;;;;;;24.75;14.02;;;;;;;1.02;78.26;99393.81;5107135;28;20101;-75
2023/01/26 11:45:42;;;;;;;24.95;15.00;;;;;;;1.02;78.23;99392.06;5106444;28;20118;-75
2023/01/26 11:48:20;;;;;;;24.63;15.07;;;;;;;1.01;77.96;99389.50;5106200;28;20288;-75
2023/01/26 11:50:55;;;;;;;22.30;13.43;;;;;;;1.00;78.11;99378.19;5106010;28;20212;-75
2023/01/26 11:53:39;;;;;;;28.42;16.00;;;;;;;1.01;77.89;99377.31;5107518;28;20184;-75
2023/01/26 11:56:19;;;;;;;27.27;15.43;;;;;;;1.01;77.97;99364.25;5107254;28;20054;-75
2023/01/26 11:58:53;;;;;;;24.13;15.90;;;;;;;1.03;78.08;99367.69;5107383;28;20032;-75
2023/01/26 12:01:27;;;;;;;27.27;15.52;;;;;;;1.07;78.09;99360.69;5105933;28;20040;-75
2023/01/26 12:03:56;;;;;;;30.88;17.02;;;;;;;1.10;78.19;99368.47;5107205;28;20298;-75
2023/01/26 12:06:31;;;;;;;24.90;14.02;;;;;;;-1.74;77.92;98871.88;5107011;28;20048;-75
2023/01/26 12:09:02;;;;;;;22.85;14.93;;;;;;;1.03;77.75;99330.31;5106687;28;20042;-74
2023/01/26 12:11:34;;;;;;;25.73;15.10;;;;;;;1.15;77.56;99354.44;5106386;28;20066;-75
2023/01/26 12:14:10;;;;;;;25.70;15.45;;;;;;;1.16;77.89;99355.31;5106965;28;20046;-74
2023/01/26 12:16:48;;;;;;;23.90;15.65;;;;;;;0.50;78.16;99266.84;5107068;28;20308;-74
2023/01/26 12:19:34;;;;;;;24.10;15.50;;;;;;;1.20;78.34;99349.16;5106347;28;20039;-75
2023/01/26 12:22:10;;;;;;;28.10;16.20;;;;;;;1.21;78.29;99340.41;5106705;28;20111;-75
2023/01/26 12:24:43;;;;;;;28.90;16.75;;;;;;;1.24;78.25;99338.63;5106846;28;20048;-74
2023/01/26 12:27:19;;;;;;;30.45;16.20;;;;;;;1.24;78.16;99338.63;5106415;28;20044;-75